Airfield :
LOGIN :

Register | Disclaimer

   EN    FR    IT 

 










Legend :    VFR   Marginal VFR   IFR   Intensive IFR   Very Intensive IFR
Visi :
Ceiling :
>= 8 km
>= 3000ft
5 to 8 km
1000 to 3000 ft
1500m to 5 km
500 to 1000 ft
800 to 1500m
200 to 500 ft
< 800m
< 200 ft
Symbols :   Thunderstorms  Fog  Heavy snow  Heavy precipitations  Wind > 20 kt
SIGMETs :     Misc.  Thunderstorms  Icing  Turbulence  Mountain Waves  Volcanic Ashes







- Airport Elevation : 140 ft
- IATA code : NYO


ESKN - Skavsta

CURRENT METAR :
  • 141720Z 05005KT 9999 BKN023 15/14 Q1008

EXPIRED METARs :
  • 141650Z 04005KT 9999 BKN023 15/14 Q1008
  • 141620Z 06006KT 9999 -RA BKN025 15/14 Q1008
  • 141550Z 06005KT 9999 -RA BKN026 16/13 Q1008
  • 141520Z 08006KT 9999 BKN029 16/13 Q1008
  • 141450Z 08007KT 9999 BKN030 16/14 Q1008

TAF TAF ESKN
Valid from the 14 at 12:00 until the 15 at 12:00 UTC


141130Z 1412/1512 10006KT 9999 SCT025 BKN040
PROB40 1412/1505 RA
PROB40 1502/1505 2000 BR
No reported NOTAMs for that airfield.



MET'MAP, your aeronautical weather chart ! - Copyright ORBIFLY December 2007 - Disclaimer

ORBIFLY MET'MAP TEAM :

Programming & Development : Alexandra Zaïnal
Concept & Development : Baudouin d'Aumeries
Co-Development & Prog : Marc-Olivier Méhu
Technical & hardware support : Manuel Goepfert

Contact : metmap@orbifly.com




SOURCES & CREDITS :

   NOAA